Archival Weather

Republic

Farmingdale, New York (KFRG)

Report from: Friday, February 23, 2024 12:53 PM EST
Current time: Monday, June 24, 2024 6:50 AM EDT

Current weather – Weather history – Daily summaries
Weather forecast

Temperature8.3°C (46.9°F)
Wind chill6.8°C (44.2°F)
Dew point4.4°C (39.9°F)
Winds 5 kts (2.6 m/s, 5.8 mph) North (350°)
Visibility10 mi. (16.1 km)
Clouds Ceiling: Overcast 1,600 ft. (488 m)
Altimeter29.47 in.Hg (998 mB)
Relative humidity76 %
Density altitude-157 ft. (-48 m)
Sea-level pressure99.8 kPa (998 mB, 29.47 in.Hg)
Max temp last 6 hours8.9°C (48.0°F)
Min temp last 6 hours6.1°C (43.0°F)
Remarks Automated weather observing station without precipitation discriminator
Pressure falling more quickly
Flight conditions Marginal Visual Meteorological Conditions
Raw dataKFRG 231753Z 35005KT 10SM OVC016 08/04 A2947 RMK AO1 SLP979 T00830044 10089 20061 58018
An error has occurred. This application may no longer respond until reloaded. Reload 🗙